Time;durP1;ratioP1;P1;durP2;ratioP2;P2;SDS_P1;SDS_P2;PMS_P1;PMS_P2;Temp;Humidity;BMP_temperature;BMP_pressure;BME280_temperature;BME280_humidity;BME280_pressure;Samples;Min_cycle;Max_cycle;Signal;HPM_P1;HPM_P2
2021/05/26 00:01:45;;;;;;;7.22;2.80;;;;;;;19.90;63.98;100509.84;5033422;28;20029;-71
2021/05/26 00:04:12;;;;;;;5.50;2.88;;;;;;;19.77;64.79;100511.56;5033643;28;20125;-71
2021/05/26 00:06:38;;;;;;;3.97;2.90;;;;;;;19.65;65.58;100515.94;5033571;28;20026;-74
2021/05/26 00:09:04;;;;;;;5.15;3.05;;;;;;;19.54;65.69;100513.31;5033401;28;20501;-71
2021/05/26 00:11:30;;;;;;;4.97;3.20;;;;;;;19.17;66.54;100479.22;5033466;28;20017;-71
2021/05/26 00:13:56;;;;;;;6.40;3.00;;;;;;;19.43;66.71;100529.88;5033979;28;20457;-73
2021/05/26 00:16:22;;;;;;;7.38;3.03;;;;;;;19.45;66.51;100523.78;5033398;28;20475;-71
2021/05/26 00:18:48;;;;;;;8.18;3.40;;;;;;;19.55;66.06;100527.25;5033619;28;20081;-71
2021/05/26 00:21:13;;;;;;;5.28;3.17;;;;;;;19.13;66.00;100451.31;5033285;28;20049;-72
2021/05/26 00:27:00;;;;;;;5.18;3.10;;;;;;;19.15;66.46;100512.41;5024991;28;20041;-71
2021/05/26 00:29:26;;;;;;;6.97;2.85;;;;;;;18.92;67.67;100521.03;5033332;28;20472;-72
2021/05/26 00:31:51;;;;;;;5.82;3.50;;;;;;;18.48;69.26;100512.97;5016316;28;20380;-74
2021/05/26 00:34:17;;;;;;;6.60;3.53;;;;;;;18.34;70.01;100518.13;5033173;28;20029;-73
2021/05/26 00:36:43;;;;;;;5.50;3.00;;;;;;;18.27;69.78;100501.53;4983834;28;20034;-70
2021/05/26 00:39:08;;;;;;;5.30;3.10;;;;;;;18.51;69.18;100507.78;5033080;28;20028;-72
2021/05/26 00:41:34;;;;;;;5.07;3.33;;;;;;;18.24;69.73;100494.56;5032915;28;20072;-71
2021/05/26 00:44:00;;;;;;;5.00;3.00;;;;;;;18.37;69.65;100503.34;5029552;28;20033;-73
2021/05/26 00:46:25;;;;;;;3.65;3.03;;;;;;;18.53;68.93;100504.28;4995818;28;20084;-70
2021/05/26 00:48:51;;;;;;;4.90;3.30;;;;;;;18.53;68.81;100493.84;5021344;28;20037;-69
2021/05/26 00:51:17;;;;;;;4.63;3.38;;;;;;;18.75;68.57;100499.13;5013264;28;20033;-71
2021/05/26 00:53:43;;;;;;;5.97;3.10;;;;;;;18.62;68.53;100497.34;5012284;28;20024;-73
2021/05/26 00:56:08;;;;;;;5.68;3.10;;;;;;;18.62;68.68;100494.72;5031989;28;20122;-75
2021/05/26 00:58:35;;;;;;;5.43;3.55;;;;;;;18.68;68.43;100495.63;5032648;28;20026;-70
2021/05/26 01:01:00;;;;;;;4.95;3.30;;;;;;;18.52;67.23;100438.94;5014567;28;20041;-71
2021/05/26 01:03:27;;;;;;;3.88;3.05;;;;;;;18.88;67.21;100494.84;5032393;28;20013;-76
2021/05/26 01:05:53;;;;;;;5.00;3.00;;;;;;;18.14;67.50;100380.38;5032304;28;20040;-69
2021/05/26 01:08:19;;;;;;;5.90;3.20;;;;;;;18.43;68.32;100458.94;5014389;28;20026;-69
2021/05/26 01:10:44;;;;;;;7.63;3.30;;;;;;;18.61;68.25;100485.16;5032109;28;20028;-71
2021/05/26 01:13:11;;;;;;;5.03;3.30;;;;;;;18.37;67.70;100429.28;5032069;28;20034;-69
2021/05/26 01:15:37;;;;;;;9.68;3.53;;;;;;;18.57;67.76;100468.56;5032387;28;20499;-75
2021/05/26 01:18:23;;;;;;;5.15;3.22;;;;;;;18.66;68.19;100488.66;5022132;28;20049;-73
2021/05/26 01:20:49;;;;;;;5.80;3.03;;;;;;;18.34;67.96;100427.50;5011159;28;20026;-71
2021/05/26 01:23:18;;;;;;;5.68;3.35;;;;;;;18.31;67.99;100426.66;4994185;28;20030;-72
2021/05/26 01:25:50;;;;;;;6.67;3.97;;;;;;;18.30;68.50;100456.25;5004397;28;20025;-71
2021/05/26 01:28:16;;;;;;;4.78;3.47;;;;;;;18.36;69.49;100495.50;5031000;28;20793;-71
2021/05/26 01:30:42;;;;;;;5.82;3.60;;;;;;;18.49;68.56;100491.19;5018425;28;20032;-73
2021/05/26 01:33:07;;;;;;;7.75;4.03;;;;;;;18.57;68.19;100495.59;5028444;28;20553;-73
2021/05/26 01:35:33;;;;;;;6.57;3.67;;;;;;;18.46;68.78;100512.97;5031586;28;20021;-71
2021/05/26 01:37:59;;;;;;;6.57;3.45;;;;;;;18.47;68.79;100509.50;5026776;28;20087;-71
2021/05/26 01:40:24;;;;;;;6.53;3.63;;;;;;;18.46;68.55;100504.25;5032090;28;20024;-70
2021/05/26 01:42:50;;;;;;;5.10;3.88;;;;;;;18.32;69.13;100510.28;5031542;28;20025;-74
2021/05/26 01:45:17;;;;;;;4.32;3.35;;;;;;;18.22;69.78;100517.19;5031729;28;20021;-70
2021/05/26 01:47:44;;;;;;;5.13;3.92;;;;;;;17.87;69.38;100444.66;5032322;28;20128;-73
2021/05/26 01:50:20;;;;;;;7.13;4.00;;;;;;;18.19;69.44;100498.84;5013595;28;20029;-70
2021/05/26 01:52:47;;;;;;;6.60;3.75;;;;;;;18.34;68.67;100502.44;5031928;28;20076;-71
2021/05/26 01:55:14;;;;;;;4.35;3.40;;;;;;;17.90;67.96;100436.81;5031778;28;20029;-70
2021/05/26 01:57:42;;;;;;;4.75;3.40;;;;;;;18.37;68.24;100505.09;5031768;28;20029;-71
2021/05/26 02:00:08;;;;;;;5.72;3.47;;;;;;;18.40;68.06;100495.50;5031401;28;20021;-72
2021/05/26 02:02:34;;;;;;;6.00;3.88;;;;;;;18.57;67.40;100518.25;5031059;28;20021;-72
2021/05/26 02:04:59;;;;;;;6.20;3.75;;;;;;;18.52;67.26;100497.31;5031090;28;20078;-71
2021/05/26 02:07:25;;;;;;;6.13;4.03;;;;;;;18.58;67.25;100510.41;5031211;28;20496;-72
2021/05/26 02:09:50;;;;;;;4.55;3.65;;;;;;;18.43;67.40;100498.13;5031203;28;20017;-72
2021/05/26 02:12:23;;;;;;;9.68;3.72;;;;;;;18.36;67.95;100501.59;5031158;28;20060;-74
2021/05/26 02:14:57;;;;;;;6.03;3.80;;;;;;;18.32;67.91;100502.44;5031115;28;20037;-71
2021/05/26 02:17:22;;;;;;;5.50;3.70;;;;;;;18.32;67.93;100493.72;5031148;28;20049;-72
2021/05/26 02:19:49;;;;;;;5.28;3.95;;;;;;;18.40;67.46;100500.72;5030839;28;20101;-70
2021/05/26 02:22:15;;;;;;;8.10;3.72;;;;;;;18.35;67.40;100504.19;5031387;28;20025;-71
2021/05/26 02:24:41;;;;;;;4.30;3.60;;;;;;;18.22;67.83;100511.97;5031263;28;20075;-73
2021/05/26 02:27:07;;;;;;;5.18;3.67;;;;;;;18.09;68.21;100512.75;5030882;28;20480;-72
2021/05/26 02:29:33;;;;;;;6.15;3.75;;;;;;;18.07;68.16;100510.13;5030593;28;20018;-72
2021/05/26 02:31:58;;;;;;;5.63;3.45;;;;;;;17.98;68.11;100494.41;5030814;28;20454;-72
2021/05/26 02:34:24;;;;;;;6.15;3.90;;;;;;;17.88;68.46;100509.09;5031207;28;20029;-75
2021/05/26 02:36:50;;;;;;;7.25;3.67;;;;;;;17.59;69.50;100525.38;5030836;28;20025;-70
2021/05/26 02:39:15;;;;;;;5.57;4.03;;;;;;;17.36;70.12;100519.94;5030916;28;20022;-71
2021/05/26 02:41:41;;;;;;;5.43;4.03;;;;;;;17.29;70.18;100524.22;5030853;28;20105;-72
2021/05/26 02:44:07;;;;;;;7.55;3.80;;;;;;;17.24;70.96;100543.31;5030831;28;20026;-72
2021/05/26 02:46:32;;;;;;;12.23;3.45;;;;;;;17.13;70.94;100523.22;5029529;28;20106;-71
2021/05/26 02:48:58;;;;;;;4.45;3.75;;;;;;;17.12;70.95;100529.28;5030646;28;20060;-69
2021/05/26 02:51:23;;;;;;;5.28;4.35;;;;;;;17.07;71.70;100540.50;5027111;28;20548;-71
2021/05/26 02:53:49;;;;;;;5.43;3.80;;;;;;;17.10;71.59;100549.25;5012322;28;20037;-69
2021/05/26 02:56:14;;;;;;;7.35;4.03;;;;;;;16.65;71.77;100482.63;5030487;28;20108;-71
2021/05/26 02:58:40;;;;;;;6.97;3.90;;;;;;;16.98;71.37;100544.78;5013061;28;20068;-70
2021/05/26 03:01:06;;;;;;;4.70;3.80;;;;;;;17.06;71.31;100557.00;5030255;28;20022;-69
2021/05/26 03:03:31;;;;;;;5.40;3.90;;;;;;;16.76;71.02;100490.56;5030917;28;20029;-71
2021/05/26 03:05:57;;;;;;;5.80;3.80;;;;;;;17.25;70.72;100558.97;5030285;28;20022;-71
2021/05/26 03:08:22;;;;;;;6.68;4.35;;;;;;;17.26;70.77;100558.13;5030434;28;20042;-69
2021/05/26 03:10:48;;;;;;;6.68;3.92;;;;;;;17.24;70.91;100556.34;5030454;28;20099;-70
2021/05/26 03:13:13;;;;;;;6.50;4.20;;;;;;;16.71;71.06;100497.47;5013296;28;20030;-69
2021/05/26 03:15:39;;;;;;;9.93;3.97;;;;;;;16.87;72.07;100561.09;5030347;28;20499;-72
2021/05/26 03:18:06;;;;;;;4.85;3.55;;;;;;;16.82;72.30;100542.78;5030294;28;20057;-71
2021/05/26 03:20:32;;;;;;;9.27;4.20;;;;;;;16.79;72.36;100556.66;5030448;28;20116;-70
2021/05/26 03:22:58;;;;;;;8.70;4.38;;;;;;;16.78;72.17;100546.22;5030094;28;20094;-69
2021/05/26 03:25:24;;;;;;;6.38;3.90;;;;;;;16.80;72.23;100540.16;5030224;28;20104;-71
2021/05/26 03:27:50;;;;;;;11.35;4.25;;;;;;;16.85;72.14;100557.59;5030011;28;20033;-71
2021/05/26 03:30:17;;;;;;;6.40;4.50;;;;;;;16.95;71.80;100560.38;5030314;28;20571;-71
2021/05/26 03:32:44;;;;;;;4.80;3.75;;;;;;;16.98;71.79;100565.63;5026831;28;20060;-71
2021/05/26 03:35:11;;;;;;;5.70;3.88;;;;;;;16.90;72.14;100576.81;5030085;28;20033;-70
2021/05/26 03:37:37;;;;;;;8.20;4.47;;;;;;;17.01;72.03;100569.13;5030347;28;20033;-70
2021/05/26 03:40:08;;;;;;;12.48;3.95;;;;;;;16.97;72.29;100581.25;5030550;28;20528;-69
2021/05/26 03:42:33;;;;;;;8.73;4.40;;;;;;;16.86;72.58;100581.09;5033382;28;20022;-71
2021/05/26 03:44:59;;;;;;;8.05;4.28;;;;;;;16.97;72.46;100582.13;5033992;28;20040;-70
2021/05/26 03:47:24;;;;;;;5.72;4.03;;;;;;;16.94;72.26;100578.59;5034227;28;20021;-70
2021/05/26 03:49:50;;;;;;;11.02;4.15;;;;;;;17.01;72.52;100585.66;5016480;28;20025;-70
2021/05/26 03:52:15;;;;;;;9.48;3.97;;;;;;;17.05;71.73;100581.38;5033634;28;20053;-71
2021/05/26 03:54:41;;;;;;;8.32;4.13;;;;;;;17.08;71.98;100587.47;5033803;28;20048;-72
2021/05/26 03:57:08;;;;;;;7.40;4.22;;;;;;;17.01;71.86;100575.22;5015272;28;20527;-74
2021/05/26 03:59:33;;;;;;;7.43;3.97;;;;;;;16.91;72.03;100563.81;5033210;28;20044;-72
2021/05/26 04:01:59;;;;;;;6.15;3.95;;;;;;;16.71;72.38;100536.56;5032129;28;20041;-71
2021/05/26 04:04:25;;;;;;;8.30;4.28;;;;;;;17.06;72.67;100583.09;5032148;28;20025;-71
2021/05/26 04:06:50;;;;;;;8.35;4.28;;;;;;;17.01;73.06;100588.28;5033513;28;20563;-70
2021/05/26 04:09:17;;;;;;;8.85;4.10;;;;;;;16.91;73.15;100595.09;5033584;28;20025;-74
2021/05/26 04:11:43;;;;;;;7.97;4.22;;;;;;;16.89;73.81;100588.94;5033035;28;20017;-73
2021/05/26 04:14:08;;;;;;;10.25;4.25;;;;;;;16.55;73.98;100552.00;5032833;28;20031;-70
2021/05/26 04:16:34;;;;;;;7.28;4.20;;;;;;;16.33;75.02;100548.22;5033421;28;20034;-71
2021/05/26 04:18:59;;;;;;;6.15;4.63;;;;;;;15.85;75.46;100479.81;5033215;28;20049;-70
2021/05/26 04:21:25;;;;;;;5.45;4.18;;;;;;;16.62;75.95;100607.69;5033297;28;20057;-71
2021/05/26 04:23:50;;;;;;;8.57;4.63;;;;;;;16.28;75.83;100565.50;5032317;28;20053;-71
2021/05/26 04:26:16;;;;;;;11.50;4.18;;;;;;;16.45;77.13;100620.50;5032894;28;20029;-71
2021/05/26 04:28:44;;;;;;;9.10;4.68;;;;;;;16.45;77.25;100616.16;5033151;28;20029;-70
2021/05/26 04:31:13;;;;;;;8.48;4.72;;;;;;;16.46;77.49;100624.81;5033024;28;20392;-70
2021/05/26 04:33:40;;;;;;;9.77;5.05;;;;;;;16.36;78.77;100626.41;5033217;28;20476;-70
2021/05/26 04:36:06;;;;;;;8.98;4.72;;;;;;;16.49;79.05;100627.50;5032872;28;20147;-75
2021/05/26 04:38:33;;;;;;;5.55;4.75;;;;;;;16.57;78.11;100633.69;5033151;28;20034;-71
2021/05/26 04:40:59;;;;;;;9.02;4.65;;;;;;;16.59;78.31;100626.78;5032796;28;20079;-72
2021/05/26 04:43:29;;;;;;;7.20;5.10;;;;;;;16.79;77.78;100618.38;5033165;28;20036;-71
2021/05/26 04:45:55;;;;;;;5.93;4.72;;;;;;;16.79;77.50;100597.50;5015199;28;20025;-72
2021/05/26 04:48:21;;;;;;;10.00;4.78;;;;;;;17.10;77.35;100627.50;5033089;28;20060;-71
2021/05/26 04:50:46;;;;;;;7.55;5.03;;;;;;;17.14;76.48;100612.75;5032694;28;20476;-74
2021/05/26 04:53:12;;;;;;;8.20;5.15;;;;;;;17.00;77.35;100594.34;5031708;28;20056;-71
2021/05/26 04:55:37;;;;;;;9.70;5.50;;;;;;;17.05;77.67;100621.34;5032420;28;20061;-71
2021/05/26 04:58:05;;;;;;;6.53;5.10;;;;;;;17.01;78.37;100605.63;5032751;28;20598;-72
2021/05/26 05:00:31;;;;;;;9.70;5.20;;;;;;;17.09;78.57;100614.44;5032642;28;20022;-71
2021/05/26 05:02:57;;;;;;;9.02;5.25;;;;;;;17.02;78.47;100597.81;5014872;28;20036;-71
2021/05/26 05:05:23;;;;;;;7.18;4.90;;;;;;;17.22;78.23;100623.28;5032623;28;20029;-75
2021/05/26 05:07:49;;;;;;;11.02;5.97;;;;;;;17.28;77.94;100615.53;5032713;28;20017;-71
2021/05/26 05:10:14;;;;;;;12.63;5.20;;;;;;;17.27;78.35;100608.56;5032129;28;20104;-71
2021/05/26 05:12:40;;;;;;;11.23;5.32;;;;;;;17.17;78.32;100622.34;5032593;28;20025;-71
2021/05/26 05:15:06;;;;;;;7.28;5.30;;;;;;;17.32;78.52;100630.38;5032742;28;20079;-72
2021/05/26 05:17:32;;;;;;;8.07;5.10;;;;;;;17.16;78.68;100597.13;5031442;28;20046;-72
2021/05/26 05:19:57;;;;;;;6.03;4.93;;;;;;;17.43;79.33;100630.50;5031309;28;20043;-71
2021/05/26 05:22:23;;;;;;;9.90;4.68;;;;;;;17.51;77.72;100614.91;5031679;28;20033;-71
2021/05/26 05:24:48;;;;;;;7.13;4.20;;;;;;;17.58;75.83;100628.06;5031846;28;20045;-69
2021/05/26 05:27:14;;;;;;;8.57;4.57;;;;;;;17.37;75.55;100567.78;5031804;28;20064;-71
2021/05/26 05:29:39;;;;;;;7.97;4.85;;;;;;;18.03;74.46;100636.38;5032197;28;20025;-74
2021/05/26 05:32:05;;;;;;;12.55;5.00;;;;;;;17.78;74.43;100565.59;5032106;28;20092;-71
2021/05/26 05:34:30;;;;;;;11.48;4.65;;;;;;;18.24;76.17;100626.94;5013896;28;20022;-71
2021/05/26 05:36:56;;;;;;;13.70;4.80;;;;;;;18.33;73.56;100611.34;5031839;28;20036;-71
2021/05/26 05:39:21;;;;;;;15.30;4.85;;;;;;;18.54;72.85;100621.09;5031771;28;20021;-71
2021/05/26 05:41:47;;;;;;;12.18;4.88;;;;;;;18.61;70.93;100595.84;5031541;28;20033;-71
2021/05/26 05:44:13;;;;;;;23.30;5.57;;;;;;;18.83;71.36;100609.91;5014351;28;20021;-71
2021/05/26 05:46:38;;;;;;;11.85;4.55;;;;;;;18.97;70.53;100627.47;5031811;28;20022;-71
2021/05/26 05:49:04;;;;;;;18.52;4.22;;;;;;;18.83;71.52;100601.16;5031664;28;20036;-71
2021/05/26 05:51:29;;;;;;;12.70;4.50;;;;;;;19.04;70.41;100611.78;5031683;28;20380;-71
2021/05/26 05:53:55;;;;;;;10.07;3.58;;;;;;;18.79;70.10;100544.50;5031264;28;20087;-72
2021/05/26 05:56:20;;;;;;;11.98;4.32;;;;;;;19.09;70.54;100593.50;5031403;28;20113;-74
2021/05/26 05:58:46;;;;;;;9.43;4.90;;;;;;;19.27;69.71;100610.13;5031816;28;20026;-71
2021/05/26 06:01:11;;;;;;;12.20;4.40;;;;;;;19.17;69.91;100596.13;5031672;28;20068;-71
2021/05/26 06:03:37;;;;;;;14.15;4.72;;;;;;;19.15;70.71;100598.75;5031307;28;20437;-70
2021/05/26 06:06:03;;;;;;;8.77;4.82;;;;;;;19.10;70.40;100600.47;5031302;28;20518;-69
2021/05/26 06:08:28;;;;;;;9.40;4.60;;;;;;;19.27;70.28;100615.38;5029470;28;20515;-71
2021/05/26 06:10:54;;;;;;;14.70;5.15;;;;;;;19.37;69.46;100599.69;5030006;28;20415;-70
2021/05/26 06:13:19;;;;;;;14.90;5.70;;;;;;;19.49;68.39;100609.31;5031663;28;20029;-71
2021/05/26 06:15:45;;;;;;;8.65;3.95;;;;;;;19.50;68.36;100608.47;5031634;28;20095;-69
2021/05/26 06:18:10;;;;;;;13.75;4.78;;;;;;;19.60;68.83;100616.31;5013403;28;20120;-75
2021/05/26 06:20:36;;;;;;;11.35;4.72;;;;;;;19.51;67.80;100573.53;5031174;28;20032;-70
2021/05/26 06:23:02;;;;;;;15.30;4.90;;;;;;;19.85;67.38;100617.25;5031092;28;20123;-73
2021/05/26 06:25:27;;;;;;;10.75;5.78;;;;;;;20.02;66.55;100619.91;5031054;28;20022;-71
2021/05/26 06:27:53;;;;;;;12.73;4.78;;;;;;;20.20;68.22;100621.66;5030724;28;20037;-71
2021/05/26 06:30:19;;;;;;;15.60;5.00;;;;;;;20.12;65.27;100595.44;5013267;28;20032;-76
2021/05/26 06:32:46;;;;;;;15.77;5.20;;;;;;;20.36;66.45;100615.53;5013123;28;20037;-71
2021/05/26 06:35:12;;;;;;;11.57;6.20;;;;;;;20.41;68.01;100622.50;5031545;28;20104;-74
2021/05/26 06:37:37;;;;;;;28.98;8.90;;;;;;;20.03;64.58;100562.25;5013276;28;20037;-73
2021/05/26 06:40:05;;;;;;;26.55;8.07;;;;;;;20.36;62.93;100618.16;5029675;28;20021;-71
2021/05/26 06:42:31;;;;;;;31.60;9.10;;;;;;;20.53;59.50;100612.84;5031058;28;20022;-71
2021/05/26 06:44:57;;;;;;;22.92;8.23;;;;;;;20.69;61.50;100611.06;5030980;28;20116;-71
2021/05/26 06:47:22;;;;;;;21.15;7.20;;;;;;;20.78;60.71;100611.97;5030776;28;20452;-75
2021/05/26 06:49:48;;;;;;;20.02;6.55;;;;;;;20.73;61.88;100614.59;5030076;28;20029;-73
2021/05/26 06:52:13;;;;;;;15.02;6.10;;;;;;;20.64;60.24;100614.59;5030654;28;20392;-71
2021/05/26 06:54:39;;;;;;;15.25;7.72;;;;;;;20.58;63.07;100607.59;5030907;28;20031;-71
2021/05/26 06:57:05;;;;;;;27.15;8.18;;;;;;;20.65;61.42;100604.09;5012952;28;20037;-75
2021/05/26 06:59:31;;;;;;;24.88;11.63;;;;;;;20.48;63.91;100582.28;5013243;28;20463;-71
2021/05/26 07:01:56;;;;;;;27.05;9.68;;;;;;;20.72;63.92;100612.84;5030747;28;20108;-74
2021/05/26 07:04:22;;;;;;;32.28;15.30;;;;;;;20.60;62.92;100595.38;5030818;28;20017;-72
2021/05/26 07:06:47;;;;;;;26.88;10.45;;;;;;;20.76;63.59;100605.84;5030692;28;20057;-71
2021/05/26 07:09:12;;;;;;;29.55;10.73;;;;;;;20.78;63.00;100609.34;5030663;28;20124;-74
2021/05/26 07:11:38;;;;;;;20.10;8.30;;;;;;;20.91;61.98;100611.06;5030893;28;20097;-72
2021/05/26 07:14:03;;;;;;;25.40;8.27;;;;;;;21.03;62.75;100607.50;5030953;28;20060;-72
2021/05/26 07:16:29;;;;;;;18.83;6.28;;;;;;;20.98;62.15;100597.03;5032590;28;20029;-71
2021/05/26 07:19:13;;;;;;;14.23;6.45;;;;;;;20.95;64.50;100575.19;5034441;28;20042;-70
2021/05/26 07:21:38;;;;;;;16.45;5.82;;;;;;;21.20;61.87;100606.56;5026907;28;20025;-72
2021/05/26 07:24:04;;;;;;;12.68;5.20;;;;;;;21.25;61.66;100586.41;5034163;28;20029;-72
2021/05/26 07:26:30;;;;;;;16.75;5.35;;;;;;;21.47;62.25;100595.91;5033832;28;20471;-71
2021/05/26 07:28:55;;;;;;;11.85;4.50;;;;;;;21.59;60.89;100599.38;5034266;28;20112;-70
2021/05/26 07:31:21;;;;;;;14.45;4.22;;;;;;;21.19;61.77;100519.06;5033710;28;20036;-72
2021/05/26 07:33:46;;;;;;;15.80;4.18;;;;;;;21.60;61.11;100593.25;5034336;28;20045;-72
2021/05/26 07:36:12;;;;;;;6.88;4.00;;;;;;;21.66;60.08;100598.47;5033575;28;20056;-71
2021/05/26 07:38:39;;;;;;;16.83;4.20;;;;;;;21.42;61.98;100542.56;5016440;28;20026;-71
2021/05/26 07:41:06;;;;;;;7.68;3.22;;;;;;;21.70;59.75;100589.66;5013487;28;20130;-71
2021/05/26 07:43:33;;;;;;;9.32;3.40;;;;;;;21.82;58.59;100591.34;5032413;28;20033;-70
2021/05/26 07:46:00;;;;;;;10.98;3.33;;;;;;;21.80;61.91;100572.94;5034124;28;20032;-71
2021/05/26 07:48:25;;;;;;;8.75;3.72;;;;;;;21.88;62.12;100587.78;5034101;28;20026;-71
2021/05/26 07:50:51;;;;;;;8.18;3.80;;;;;;;22.08;59.73;100592.88;5033975;28;20033;-70
2021/05/26 07:53:16;;;;;;;4.80;3.58;;;;;;;22.23;63.15;100579.59;5034587;28;20472;-72
2021/05/26 07:55:42;;;;;;;6.53;3.72;;;;;;;22.40;61.23;100578.59;5016421;28;21673;-71
2021/05/26 07:58:07;;;;;;;6.50;2.63;;;;;;;22.62;57.02;100576.59;5016367;28;20033;-70
2021/05/26 08:00:33;;;;;;;4.82;2.97;;;;;;;22.76;57.15;100573.81;5033937;28;20025;-71
2021/05/26 08:02:58;;;;;;;7.43;3.13;;;;;;;22.68;56.48;100578.28;5032736;28;20052;-71
2021/05/26 08:05:24;;;;;;;4.97;2.90;;;;;;;22.86;56.76;100571.94;5010954;28;20492;-74
2021/05/26 08:07:51;;;;;;;9.05;3.20;;;;;;;23.02;57.35;100585.78;5011394;28;20129;-72
2021/05/26 08:10:16;;;;;;;15.05;3.50;;;;;;;22.95;56.98;100579.72;5011626;28;20101;-70
2021/05/26 08:12:42;;;;;;;12.98;3.60;;;;;;;23.12;60.43;100582.13;5011483;28;20029;-73
2021/05/26 08:15:11;;;;;;;9.38;3.20;;;;;;;23.26;58.71;100585.50;5011433;28;20479;-70
2021/05/26 08:17:36;;;;;;;4.22;2.95;;;;;;;23.37;56.52;100587.09;4989437;28;20104;-72
2021/05/26 08:20:05;;;;;;;3.95;2.90;;;;;;;23.44;56.75;100578.22;5001556;28;21253;-72
2021/05/26 08:22:31;;;;;;;10.23;3.15;;;;;;;23.64;54.70;100575.28;4992508;28;20042;-70
2021/05/26 08:24:57;;;;;;;7.63;3.33;;;;;;;23.78;54.33;100576.84;4993101;28;20057;-69
2021/05/26 08:27:22;;;;;;;6.00;3.25;;;;;;;23.80;57.94;100565.38;4993475;28;20034;-71
2021/05/26 08:29:48;;;;;;;7.55;3.00;;;;;;;23.59;55.85;100538.44;4999117;28;20045;-73
2021/05/26 08:32:13;;;;;;;8.32;3.03;;;;;;;23.92;55.09;100574.00;5009492;28;20069;-72
2021/05/26 08:34:39;;;;;;;7.47;3.20;;;;;;;23.89;56.32;100570.47;4994670;28;20121;-73
2021/05/26 08:37:04;;;;;;;6.43;3.22;;;;;;;23.93;55.96;100576.59;5008205;28;20038;-74
2021/05/26 08:39:34;;;;;;;10.95;3.20;;;;;;;23.82;57.55;100562.69;5015102;28;20033;-73
2021/05/26 08:41:59;;;;;;;7.32;3.13;;;;;;;23.94;57.05;100569.56;5015046;28;20500;-72
2021/05/26 08:44:25;;;;;;;10.35;2.72;;;;;;;23.72;55.13;100512.75;5025497;28;20109;-73
2021/05/26 08:46:52;;;;;;;6.28;3.20;;;;;;;24.22;58.98;100564.66;5013541;28;20473;-72
2021/05/26 08:49:19;;;;;;;6.10;3.00;;;;;;;24.31;55.66;100561.00;5018616;28;20025;-71
2021/05/26 08:51:44;;;;;;;6.63;3.55;;;;;;;24.47;57.26;100557.16;5022244;28;20033;-69
2021/05/26 08:54:10;;;;;;;9.30;2.83;;;;;;;24.54;54.29;100552.66;5017394;28;20030;-69
2021/05/26 08:56:36;;;;;;;6.22;3.03;;;;;;;24.61;57.58;100549.00;5012459;28;20026;-71
2021/05/26 08:59:01;;;;;;;10.23;4.88;;;;;;;24.73;54.43;100547.03;4996098;28;20038;-67
2021/05/26 09:01:27;;;;;;;7.85;3.75;;;;;;;24.90;54.94;100546.66;5020248;28;20738;-70
2021/05/26 09:03:54;;;;;;;7.03;2.83;;;;;;;24.95;54.34;100544.78;5029808;28;20036;-72
2021/05/26 09:06:20;;;;;;;5.57;2.70;;;;;;;25.13;55.07;100541.75;5030322;28;20033;-71
2021/05/26 09:08:52;;;;;;;5.15;2.65;;;;;;;25.09;54.27;100494.31;5030489;28;20030;-72
2021/05/26 09:11:33;;;;;;;4.88;3.00;;;;;;;25.41;54.23;100538.53;5032386;28;20026;-72
2021/05/26 09:14:10;;;;;;;7.57;3.17;;;;;;;25.20;53.69;100518.72;5032558;28;20030;-73
2021/05/26 09:16:35;;;;;;;13.43;3.55;;;;;;;25.40;54.29;100528.84;5032572;28;20041;-72
2021/05/26 09:19:03;;;;;;;11.02;4.07;;;;;;;25.68;52.35;100549.31;5015157;28;20488;-76
2021/05/26 09:21:52;;;;;;;10.27;3.95;;;;;;;25.60;52.27;100483.41;5032835;28;20029;-72
2021/05/26 09:24:20;;;;;;;6.00;3.03;;;;;;;26.12;50.92;100541.19;5032441;28;20471;-72
2021/05/26 09:27:10;;;;;;;10.57;3.33;;;;;;;26.13;50.47;100530.56;5033010;28;20025;-72
2021/05/26 09:29:40;;;;;;;9.60;3.42;;;;;;;26.13;54.38;100527.03;5032699;28;20057;-72
2021/05/26 09:32:14;;;;;;;13.77;4.47;;;;;;;26.12;50.39;100536.78;5032594;28;20087;-71
2021/05/26 09:34:44;;;;;;;14.15;5.13;;;;;;;26.31;49.34;100533.63;5032472;28;20021;-71
2021/05/26 09:37:35;;;;;;;9.05;3.10;;;;;;;26.51;46.90;100532.22;5032417;28;20021;-73
2021/05/26 09:40:07;;;;;;;6.03;3.08;;;;;;;26.06;46.28;100441.69;4951536;28;20505;-72
2021/05/26 09:42:36;;;;;;;4.70;3.05;;;;;;;26.68;46.14;100529.94;4952300;29;20081;-71
2021/05/26 09:45:15;;;;;;;8.68;3.30;;;;;;;26.93;47.35;100538.06;4952246;29;20042;-72
2021/05/26 09:47:42;;;;;;;6.60;3.10;;;;;;;26.98;43.70;100529.09;4952334;28;20050;-72
2021/05/26 09:50:20;;;;;;;14.10;5.05;;;;;;;27.12;44.41;100525.09;4952361;29;20067;-72
2021/05/26 09:53:18;;;;;;;19.75;10.50;;;;;;;27.22;47.79;100531.00;4936385;29;20039;-71
2021/05/26 09:55:48;;;;;;;20.17;9.90;;;;;;;27.46;44.47;100530.31;4952049;29;20031;-70
2021/05/26 09:58:15;;;;;;;12.98;5.20;;;;;;;27.20;45.28;100476.28;4951888;29;20050;-72
2021/05/26 10:00:42;;;;;;;19.33;6.35;;;;;;;27.77;43.33;100527.50;4951778;29;20505;-71
2021/05/26 10:03:08;;;;;;;23.63;8.80;;;;;;;27.59;44.41;100470.63;4935540;29;20039;-72
2021/05/26 10:05:34;;;;;;;30.30;10.40;;;;;;;27.63;43.59;100464.31;4913416;29;20044;-72
2021/05/26 10:08:02;;;;;;;10.38;4.40;;;;;;;28.11;42.97;100518.38;4913650;29;20080;-71
2021/05/26 10:10:31;;;;;;;7.68;3.25;;;;;;;28.07;42.31;100509.66;4913447;29;20044;-72
2021/05/26 10:13:00;;;;;;;10.68;5.00;;;;;;;28.21;41.24;100518.94;4913702;29;20044;-71
2021/05/26 10:15:28;;;;;;;12.15;5.13;;;;;;;28.28;42.72;100514.28;4913503;29;20100;-72
2021/05/26 10:17:56;;;;;;;10.07;5.55;;;;;;;28.20;41.62;100512.75;4980911;28;20054;-72
2021/05/26 10:20:30;;;;;;;6.97;3.05;;;;;;;28.39;38.21;100509.44;4990126;28;20492;-71
2021/05/26 10:22:58;;;;;;;4.85;3.28;;;;;;;28.29;42.15;100498.28;4990106;28;20390;-71
2021/05/26 10:25:24;;;;;;;4.85;3.85;;;;;;;28.31;41.32;100488.47;4990042;28;20038;-72
2021/05/26 10:27:54;;;;;;;12.02;5.75;;;;;;;28.52;42.40;100497.41;4989992;28;20444;-71
2021/05/26 10:30:24;;;;;;;26.55;10.27;;;;;;;28.78;39.26;100492.94;4990200;28;20038;-72
2021/05/26 10:33:00;;;;;;;14.93;7.03;;;;;;;28.99;38.70;100501.88;4989895;28;20073;-71
2021/05/26 10:35:57;;;;;;;31.35;11.30;;;;;;;28.98;38.09;100493.97;4991625;28;20034;-71
2021/05/26 10:38:23;;;;;;;9.15;5.40;;;;;;;28.80;38.24;100484.91;4970590;28;20058;-72
2021/05/26 10:40:53;;;;;;;9.38;4.75;;;;;;;28.98;38.79;100489.50;4970119;28;20413;-71
2021/05/26 10:43:19;;;;;;;9.20;4.35;;;;;;;29.00;38.95;100486.81;4970535;28;20090;-73
2021/05/26 10:45:50;;;;;;;11.32;5.10;;;;;;;28.87;40.67;100486.41;4970586;28;20031;-71
2021/05/26 10:48:43;;;;;;;24.88;10.60;;;;;;;28.63;39.43;100486.41;4961276;28;20039;-72
2021/05/26 10:51:09;;;;;;;23.25;10.35;;;;;;;28.58;39.38;100475.09;4957746;28;20031;-70
2021/05/26 10:53:42;;;;;;;13.68;6.72;;;;;;;28.35;39.71;100455.59;4973599;28;20047;-70
2021/05/26 10:56:35;;;;;;;7.43;4.28;;;;;;;27.96;41.41;100476.44;4970996;28;20209;-70
2021/05/26 10:59:12;;;;;;;7.40;3.78;;;;;;;27.27;41.38;100393.03;4956660;28;20082;-74
2021/05/26 11:02:18;;;;;;;9.82;3.80;;;;;;;27.85;42.62;100468.84;4972570;28;20038;-71
2021/05/26 11:04:44;;;;;;;8.48;4.05;;;;;;;27.82;42.59;100458.38;4896594;29;20036;-70
2021/05/26 11:07:29;;;;;;;5.80;4.15;;;;;;;27.69;41.46;100447.31;4896821;29;20422;-73
2021/05/26 11:10:00;;;;;;;8.77;4.53;;;;;;;28.03;43.98;100468.22;4896684;29;20503;-72
2021/05/26 11:12:27;;;;;;;30.77;13.38;;;;;;;28.29;40.48;100461.13;4895874;29;20092;-72
2021/05/26 11:14:55;;;;;;;8.57;4.40;;;;;;;28.58;42.61;100454.69;4912367;28;20039;-75
2021/05/26 11:17:27;;;;;;;10.65;5.72;;;;;;;28.61;41.23;100448.38;4953360;29;20035;-72
2021/05/26 11:20:11;;;;;;;27.48;9.95;;;;;;;28.91;40.95;100460.56;4943558;29;20150;-70
2021/05/26 11:22:36;;;;;;;6.55;4.50;;;;;;;29.09;42.13;100454.53;4953623;29;20098;-72
2021/05/26 11:25:02;;;;;;;7.45;4.45;;;;;;;29.01;40.91;100456.63;4953049;29;20473;-69
2021/05/26 11:27:28;;;;;;;7.22;4.30;;;;;;;28.53;40.30;100394.72;4952425;29;20046;-70